createdAt,value
2022-10-14T00:00:10.013Z,91.25
2022-10-14T00:02:39.053Z,90.80
2022-10-14T00:05:08.738Z,90.68
2022-10-14T00:07:36.677Z,90.71
2022-10-14T00:10:04.733Z,90.63
2022-10-14T00:12:32.464Z,90.72
2022-10-14T00:15:00.453Z,90.32
2022-10-14T00:17:28.169Z,90.07
2022-10-14T00:19:57.272Z,89.56
2022-10-14T00:22:25.153Z,89.53
2022-10-14T00:24:52.963Z,89.34
2022-10-14T00:27:20.931Z,89.33
2022-10-14T00:29:48.710Z,88.92
2022-10-14T00:32:16.318Z,89.00
2022-10-14T00:34:44.144Z,89.20
2022-10-14T00:37:13.100Z,89.33
2022-10-14T00:39:40.839Z,89.00
2022-10-14T00:42:11.319Z,88.17
2022-10-14T00:45:01.704Z,88.32
2022-10-14T00:47:29.766Z,88.26
2022-10-14T00:49:58.184Z,87.37
2022-10-14T00:52:27.857Z,87.24
2022-10-14T00:54:58.341Z,87.67
2022-10-14T00:57:27.191Z,87.69
2022-10-14T00:59:58.001Z,87.42
2022-10-14T01:02:25.647Z,87.53
2022-10-14T01:04:53.343Z,87.19
2022-10-14T01:07:30.447Z,87.14
2022-10-14T01:10:05.374Z,87.69
2022-10-14T01:12:37.267Z,87.43
2022-10-14T01:15:08.809Z,87.83
2022-10-14T01:17:42.254Z,87.12
2022-10-14T01:20:25.025Z,87.84
2022-10-14T01:23:03.061Z,87.81
2022-10-14T01:25:33.870Z,87.80
2022-10-14T01:28:16.474Z,87.84
2022-10-14T01:30:46.925Z,87.85
2022-10-14T01:33:17.211Z,88.06
2022-10-14T01:35:52.398Z,87.86
2022-10-14T01:38:21.511Z,87.80
2022-10-14T01:40:51.875Z,87.12
2022-10-14T01:43:20.978Z,86.94
2022-10-14T01:45:50.830Z,87.30
2022-10-14T01:48:20.161Z,87.23
2022-10-14T01:50:50.078Z,87.16
2022-10-14T01:53:20.488Z,87.04
2022-10-14T01:55:49.210Z,86.77
2022-10-14T01:58:18.294Z,86.85
2022-10-14T02:00:48.089Z,86.74
2022-10-14T02:03:17.130Z,86.33
2022-10-14T02:05:48.388Z,86.47
2022-10-14T02:08:22.232Z,85.97
2022-10-14T02:11:04.522Z,86.03
2022-10-14T02:13:50.225Z,85.79
2022-10-14T02:16:24.916Z,85.99
2022-10-14T02:18:58.198Z,85.81
2022-10-14T02:21:30.126Z,85.95
2022-10-14T02:24:01.325Z,85.49
2022-10-14T02:26:29.614Z,85.48
2022-10-14T02:28:58.060Z,85.32
2022-10-14T02:31:25.921Z,84.86
2022-10-14T02:33:57.229Z,85.22
2022-10-14T02:36:26.263Z,85.37
2022-10-14T02:38:54.764Z,85.30
2022-10-14T02:41:23.942Z,85.02
2022-10-14T02:43:51.561Z,85.09
2022-10-14T02:46:21.280Z,84.98
2022-10-14T02:48:49.013Z,85.01
2022-10-14T02:51:18.375Z,84.65
2022-10-14T02:53:46.005Z,84.73
2022-10-14T02:56:14.822Z,84.69
2022-10-14T02:58:42.445Z,84.70
2022-10-14T03:01:10.119Z,84.34
2022-10-14T03:03:37.761Z,84.42
2022-10-14T03:06:05.611Z,84.23
2022-10-14T03:08:34.625Z,84.43
2022-10-14T03:11:02.261Z,84.86
2022-10-14T03:13:29.920Z,84.91
2022-10-14T03:15:58.237Z,85.15
2022-10-14T03:18:25.902Z,85.08
2022-10-14T03:20:53.526Z,84.66
2022-10-14T03:23:21.129Z,84.35
2022-10-14T03:25:50.203Z,84.59
2022-10-14T03:28:17.810Z,84.79
2022-10-14T03:30:45.459Z,84.68
2022-10-14T03:33:15.020Z,84.67
2022-10-14T03:35:43.182Z,84.38
2022-10-14T03:38:10.787Z,84.71
2022-10-14T03:40:38.363Z,84.02
2022-10-14T03:43:07.442Z,84.01
2022-10-14T03:45:35.095Z,84.53
2022-10-14T03:48:02.785Z,84.56
2022-10-14T03:50:30.400Z,84.52
2022-10-14T03:52:57.968Z,84.54
2022-10-14T03:55:25.988Z,84.42
2022-10-14T03:57:53.601Z,84.46
2022-10-14T04:00:22.834Z,84.20
2022-10-14T04:02:50.490Z,84.33
2022-10-14T04:05:18.313Z,84.32
2022-10-14T04:07:45.912Z,83.78
2022-10-14T04:10:13.567Z,84.09
2022-10-14T04:12:41.236Z,83.59
2022-10-14T04:15:09.582Z,83.46
2022-10-14T04:17:38.569Z,83.63
2022-10-14T04:20:07.255Z,83.69
2022-10-14T04:22:34.940Z,83.49
2022-10-14T04:25:02.553Z,83.54
2022-10-14T04:27:30.173Z,83.27
2022-10-14T04:29:57.790Z,83.25
2022-10-14T04:32:25.510Z,83.46
2022-10-14T04:34:54.938Z,83.24
2022-10-14T04:37:22.485Z,83.11
2022-10-14T04:39:50.104Z,83.01
2022-10-14T04:42:17.746Z,83.23
2022-10-14T04:44:45.335Z,83.17
2022-10-14T04:47:12.910Z,83.30
2022-10-14T04:49:40.579Z,83.43
2022-10-14T04:52:09.567Z,83.61
2022-10-14T04:54:37.182Z,82.92
2022-10-14T04:57:04.946Z,82.99
2022-10-14T04:59:32.580Z,83.51
2022-10-14T05:02:00.255Z,83.56
2022-10-14T05:04:28.057Z,83.49
2022-10-14T05:06:55.685Z,83.34
2022-10-14T05:09:25.137Z,83.24
2022-10-14T05:11:52.770Z,83.18
2022-10-14T05:14:20.770Z,83.39
2022-10-14T05:16:48.410Z,83.22
2022-10-14T05:19:16.423Z,82.90
2022-10-14T05:21:44.013Z,83.29
2022-10-14T05:24:11.629Z,83.46
2022-10-14T05:26:40.630Z,83.20
2022-10-14T05:29:08.260Z,83.22
2022-10-14T05:31:35.905Z,83.56
2022-10-14T05:34:03.520Z,83.59
2022-10-14T05:36:31.117Z,83.73
2022-10-14T05:38:58.874Z,84.15
2022-10-14T05:41:26.922Z,84.32
2022-10-14T05:43:55.959Z,84.44
2022-10-14T05:46:23.576Z,84.55
2022-10-14T05:48:51.268Z,84.67
2022-10-14T05:51:21.147Z,84.48
2022-10-14T05:53:48.837Z,84.74
2022-10-14T05:56:16.607Z,84.85
2022-10-14T05:58:44.266Z,84.54
2022-10-14T06:01:13.331Z,84.38
2022-10-14T06:03:41.028Z,84.41
2022-10-14T06:06:10.554Z,84.65
2022-10-14T06:08:38.214Z,84.56
2022-10-14T06:11:06.130Z,84.65
2022-10-14T06:13:33.776Z,84.67
2022-10-14T06:16:04.288Z,84.97
2022-10-14T06:18:33.375Z,85.37
2022-10-14T06:21:01.472Z,85.76
2022-10-14T06:23:29.540Z,85.83
2022-10-14T06:25:57.197Z,86.31
2022-10-14T06:28:24.909Z,86.18
2022-10-14T06:30:52.651Z,86.34
2022-10-14T06:33:20.679Z,86.57
2022-10-14T06:35:50.121Z,86.75
2022-10-14T06:38:17.725Z,86.85
2022-10-14T06:40:45.438Z,87.02
2022-10-14T06:43:13.069Z,87.15
2022-10-14T06:45:40.712Z,86.99
2022-10-14T06:48:08.450Z,87.62
2022-10-14T06:50:36.219Z,87.39
2022-10-14T06:53:05.360Z,87.40
2022-10-14T06:55:33.049Z,87.78
2022-10-14T06:58:00.730Z,87.89
2022-10-14T07:00:28.366Z,87.86
2022-10-14T07:02:56.008Z,87.62
2022-10-14T07:05:23.644Z,87.64
2022-10-14T07:07:51.321Z,87.87
2022-10-14T07:10:20.459Z,88.48
2022-10-14T07:12:48.097Z,88.33
2022-10-14T07:15:15.829Z,88.77
2022-10-14T07:17:43.426Z,88.41
2022-10-14T07:20:12.670Z,88.96
2022-10-14T07:22:40.612Z,88.67
2022-10-14T07:25:09.388Z,88.76
2022-10-14T07:27:38.457Z,88.90
2022-10-14T07:30:07.322Z,89.37
2022-10-14T07:32:37.122Z,89.74
2022-10-14T07:35:05.255Z,90.22
2022-10-14T07:37:32.992Z,90.03
2022-10-14T07:40:00.598Z,90.38
2022-10-14T07:42:28.251Z,90.18
2022-10-14T07:44:58.115Z,90.59
2022-10-14T07:47:25.741Z,90.53
2022-10-14T07:49:53.894Z,90.96
2022-10-14T07:52:21.581Z,90.90
2022-10-14T07:54:49.284Z,91.15
2022-10-14T07:57:17.102Z,91.47
2022-10-14T07:59:44.729Z,91.66
2022-10-14T08:02:13.906Z,91.82
2022-10-14T08:04:41.543Z,92.00
2022-10-14T08:07:09.185Z,91.95
2022-10-14T08:09:37.541Z,91.44
2022-10-14T08:12:05.586Z,91.89
2022-10-14T08:14:33.258Z,92.15
2022-10-14T08:17:00.878Z,92.38
2022-10-14T08:19:30.042Z,92.66
2022-10-14T08:21:57.657Z,92.57
2022-10-14T08:24:25.275Z,92.72
2022-10-14T08:26:54.378Z,92.74
2022-10-14T08:29:23.506Z,92.59
2022-10-14T08:31:51.327Z,92.68
2022-10-14T08:34:21.005Z,92.84
2022-10-14T08:36:50.289Z,92.84
2022-10-14T08:39:19.147Z,92.70
2022-10-14T08:42:17.345Z,93.20
2022-10-14T08:44:48.390Z,92.96
2022-10-14T08:47:17.368Z,93.27
2022-10-14T08:49:53.144Z,93.23
2022-10-14T08:52:24.660Z,92.97
2022-10-14T08:54:56.593Z,93.10
2022-10-14T08:57:26.660Z,93.25
2022-10-14T08:59:54.571Z,93.34
2022-10-14T09:02:28.904Z,93.60
2022-10-14T09:04:56.623Z,93.82
2022-10-14T09:07:26.103Z,93.71
2022-10-14T09:09:57.862Z,93.84
2022-10-14T09:12:28.099Z,94.08
2022-10-14T09:15:09.400Z,93.59
2022-10-14T09:17:42.707Z,93.72
2022-10-14T09:20:19.651Z,93.60
2022-10-14T09:22:57.521Z,93.90
2022-10-14T09:25:25.186Z,93.84
2022-10-14T09:27:52.801Z,93.67
2022-10-14T09:30:20.520Z,93.79
2022-10-14T09:32:50.126Z,93.76
2022-10-14T09:35:23.338Z,94.12
2022-10-14T09:37:53.015Z,94.42
2022-10-14T09:40:26.804Z,93.93
2022-10-14T09:42:58.378Z,94.23
2022-10-14T09:45:26.923Z,94.17
2022-10-14T09:47:56.602Z,93.74
2022-10-14T09:50:29.505Z,94.44
2022-10-14T09:53:02.734Z,94.31
2022-10-14T09:55:30.853Z,94.01
2022-10-14T09:58:07.322Z,93.87
2022-10-14T10:00:37.737Z,94.07
2022-10-14T10:03:06.905Z,93.82
2022-10-14T10:05:35.761Z,93.92
2022-10-14T10:08:11.106Z,94.22
2022-10-14T10:10:38.811Z,93.95
2022-10-14T10:13:22.089Z,94.10
2022-10-14T10:15:58.563Z,94.33
2022-10-14T10:18:26.368Z,94.06
2022-10-14T10:21:06.619Z,93.87
2022-10-14T10:23:36.681Z,93.75
2022-10-14T10:26:27.066Z,94.20
2022-10-14T10:28:57.418Z,94.67
2022-10-14T10:31:35.313Z,94.58
2022-10-14T10:34:10.465Z,94.19
2022-10-14T10:36:41.637Z,93.99
2022-10-14T10:39:19.768Z,94.43
2022-10-14T10:41:58.424Z,94.09
2022-10-14T10:44:47.679Z,94.18
2022-10-14T10:47:31.419Z,94.02
2022-10-14T10:50:17.925Z,93.67
2022-10-14T10:53:01.319Z,94.19
2022-10-14T10:55:36.528Z,94.37
2022-10-14T10:58:16.720Z,94.50
2022-10-14T11:00:49.715Z,94.66
2022-10-14T11:03:32.211Z,94.54
2022-10-14T11:06:03.870Z,94.30
2022-10-14T11:09:11.907Z,94.17
2022-10-14T11:12:07.886Z,94.45
2022-10-14T11:14:48.432Z,94.06
2022-10-14T11:17:22.040Z,93.85
2022-10-14T11:19:54.171Z,93.56
2022-10-14T11:22:38.649Z,93.46
2022-10-14T11:25:17.542Z,93.75
2022-10-14T11:27:52.477Z,93.73
2022-10-14T11:30:21.970Z,93.75
2022-10-14T11:33:16.598Z,93.63
2022-10-14T11:35:51.870Z,93.83
2022-10-14T11:38:29.340Z,93.94
2022-10-14T11:41:01.522Z,93.78
2022-10-14T11:43:39.449Z,94.04
2022-10-14T11:46:09.610Z,94.24
2022-10-14T11:48:41.506Z,95.02
2022-10-14T11:51:12.693Z,94.96
2022-10-14T11:53:47.419Z,94.98
2022-10-14T11:56:25.782Z,95.26
2022-10-14T11:58:55.193Z,95.78
2022-10-14T12:01:27.602Z,95.53
2022-10-14T12:03:59.822Z,95.20
2022-10-14T12:06:30.766Z,95.21
2022-10-14T12:09:01.340Z,95.49
2022-10-14T12:11:32.239Z,95.46
2022-10-14T12:14:06.203Z,95.49
2022-10-14T12:16:34.284Z,95.64
2022-10-14T12:19:02.093Z,95.20
2022-10-14T12:21:34.676Z,95.47
2022-10-14T12:24:05.959Z,95.40
2022-10-14T12:26:47.191Z,95.82
2022-10-14T12:29:18.822Z,95.77
2022-10-14T12:31:50.599Z,96.02
2022-10-14T12:34:36.146Z,95.84
2022-10-14T12:37:50.073Z,95.25
2022-10-14T12:40:32.507Z,95.77
2022-10-14T12:43:15.816Z,95.31
2022-10-14T12:46:02.297Z,95.08
2022-10-14T12:48:32.874Z,95.20
2022-10-14T12:51:12.518Z,95.34
2022-10-14T12:53:48.277Z,95.61
2022-10-14T12:56:29.610Z,95.51
2022-10-14T12:59:01.248Z,95.98
2022-10-14T13:01:33.769Z,95.98
2022-10-14T13:04:07.063Z,95.99
2022-10-14T13:06:37.581Z,96.06
2022-10-14T13:09:34.633Z,95.64
2022-10-14T13:12:46.966Z,96.03
2022-10-14T13:15:37.132Z,96.26
2022-10-14T13:18:51.317Z,96.24
2022-10-14T13:21:32.127Z,96.19
2022-10-14T13:24:01.754Z,96.20
2022-10-14T13:26:37.828Z,96.03
2022-10-14T13:29:18.871Z,96.27
2022-10-14T13:31:53.959Z,96.27
2022-10-14T13:34:31.001Z,96.17
2022-10-14T13:37:05.428Z,95.57
2022-10-14T13:39:34.001Z,95.88
2022-10-14T13:42:02.494Z,95.62
2022-10-14T13:44:30.508Z,95.75
2022-10-14T13:46:58.214Z,95.86
2022-10-14T13:49:31.924Z,95.76
2022-10-14T13:52:01.643Z,95.96
2022-10-14T13:54:31.000Z,94.74
2022-10-14T14:02:40.824Z,96.02
2022-10-14T14:05:15.824Z,96.40
2022-10-14T14:08:30.108Z,96.29
2022-10-14T14:10:32.314Z,95.94
2022-10-14T14:13:01.176Z,96.41
2022-10-14T14:15:30.159Z,96.39
2022-10-14T14:17:57.782Z,96.44
2022-10-14T14:20:29.693Z,96.72
2022-10-14T14:22:59.329Z,96.70
2022-10-14T14:25:34.647Z,96.96
2022-10-14T14:28:05.643Z,96.65
2022-10-14T14:30:35.148Z,96.82
2022-10-14T14:33:04.347Z,97.27
2022-10-14T14:35:33.407Z,97.07
2022-10-14T14:38:01.389Z,97.33
2022-10-14T14:40:30.965Z,97.01
2022-10-14T14:43:00.036Z,97.34
2022-10-14T14:45:30.488Z,97.05
2022-10-14T14:47:59.564Z,97.17
2022-10-14T14:50:31.155Z,97.32
2022-10-14T14:53:03.433Z,97.48
2022-10-14T14:55:36.473Z,97.53
2022-10-14T14:58:05.423Z,97.52
2022-10-14T15:00:33.354Z,97.85
2022-10-14T15:03:02.458Z,97.88
2022-10-14T15:05:30.587Z,97.86
2022-10-14T15:07:58.275Z,97.45
2022-10-14T15:10:29.559Z,97.86
2022-10-14T15:12:59.015Z,97.62
2022-10-14T15:15:29.899Z,97.91
2022-10-14T15:18:14.010Z,97.50
2022-10-14T15:20:42.743Z,97.67
2022-10-14T15:23:46.963Z,97.73
2022-10-14T15:26:30.902Z,97.82
2022-10-14T15:29:07.176Z,98.13
2022-10-14T15:33:58.802Z,97.86
2022-10-14T15:36:27.045Z,98.23
2022-10-14T15:38:58.314Z,97.46
2022-10-14T15:41:26.170Z,97.91
2022-10-14T15:43:53.793Z,97.89
2022-10-14T15:46:39.083Z,97.74
2022-10-14T15:49:19.144Z,98.08
2022-10-14T15:51:46.742Z,98.19
2022-10-14T15:56:11.304Z,98.34
2022-10-14T15:58:39.008Z,98.30
2022-10-14T16:01:07.373Z,98.36
2022-10-14T16:03:37.314Z,98.48
2022-10-14T16:06:09.022Z,98.23
2022-10-14T16:08:36.664Z,98.26
2022-10-14T16:11:04.741Z,98.31
2022-10-14T16:13:33.730Z,98.28
2022-10-14T16:16:02.629Z,97.92
2022-10-14T16:18:30.258Z,98.29
2022-10-14T16:20:57.893Z,97.80
2022-10-14T16:23:29.584Z,98.33
2022-10-14T16:26:00.818Z,98.77
2022-10-14T16:28:28.560Z,98.99
2022-10-14T16:30:57.614Z,98.82
2022-10-14T16:33:25.272Z,98.60
2022-10-14T16:35:54.795Z,98.28
2022-10-14T16:38:24.108Z,98.39
2022-10-14T16:40:55.384Z,98.26
2022-10-14T16:43:23.064Z,98.59
2022-10-14T16:45:50.694Z,98.37
2022-10-14T16:48:19.894Z,98.58
2022-10-14T16:50:50.037Z,98.79
2022-10-14T16:53:35.510Z,98.76
2022-10-14T16:56:03.233Z,98.67
2022-10-14T16:58:31.516Z,98.31
2022-10-14T17:00:59.295Z,98.07
2022-10-14T17:03:29.558Z,97.89
2022-10-14T17:05:58.763Z,97.74
2022-10-14T17:08:26.476Z,97.61
2022-10-14T17:10:58.252Z,97.90
2022-10-14T17:13:25.927Z,97.81
2022-10-14T17:15:59.966Z,97.64
2022-10-14T17:18:33.695Z,97.43
2022-10-14T17:21:02.423Z,97.26
2022-10-14T17:23:31.151Z,97.19
2022-10-14T17:25:58.793Z,97.37
2022-10-14T17:28:26.691Z,97.33
2022-10-14T17:30:54.422Z,97.06
2022-10-14T17:33:23.033Z,97.18
2022-10-14T17:35:58.011Z,96.91
2022-10-14T17:38:26.018Z,97.19
2022-10-14T17:40:53.860Z,97.27
2022-10-14T17:43:21.486Z,97.18
2022-10-14T17:45:49.051Z,97.09
2022-10-14T17:48:17.141Z,96.79
2022-10-14T17:50:50.998Z,96.79
2022-10-14T17:53:19.995Z,96.68
2022-10-14T17:55:47.708Z,96.90
2022-10-14T17:58:15.418Z,96.54
2022-10-14T18:00:43.490Z,96.61
2022-10-14T18:03:13.348Z,96.25
2022-10-14T18:05:43.957Z,96.52
2022-10-14T18:08:14.596Z,96.38
2022-10-14T18:10:43.938Z,95.93
2022-10-14T18:13:11.550Z,95.90
2022-10-14T18:15:39.167Z,95.79
2022-10-14T18:18:07.053Z,96.04
2022-10-14T18:20:36.931Z,95.69
2022-10-14T18:23:04.539Z,95.45
2022-10-14T18:25:32.451Z,95.65
2022-10-14T18:28:01.462Z,95.63
2022-10-14T18:30:29.121Z,95.67
2022-10-14T18:32:57.215Z,95.46
2022-10-14T18:35:24.860Z,95.38
2022-10-14T18:37:52.515Z,95.39
2022-10-14T18:40:21.456Z,95.24
2022-10-14T18:42:49.047Z,95.38
2022-10-14T18:45:18.733Z,95.41
2022-10-14T18:47:47.583Z,95.00
2022-10-14T18:50:15.416Z,95.36
2022-10-14T18:52:43.049Z,95.17
2022-10-14T18:55:10.797Z,94.75
2022-10-14T18:57:38.448Z,94.88
2022-10-14T19:00:09.447Z,95.02
2022-10-14T19:02:41.057Z,95.03
2022-10-14T19:05:10.659Z,94.51
2022-10-14T19:07:38.925Z,94.51
2022-10-14T19:10:07.418Z,94.63
2022-10-14T19:12:44.413Z,94.12
2022-10-14T19:15:12.725Z,94.00
2022-10-14T19:17:42.772Z,94.10
2022-10-14T19:20:10.779Z,94.08
2022-10-14T19:22:44.668Z,93.66
2022-10-14T19:25:12.513Z,93.66
2022-10-14T19:27:40.176Z,93.71
2022-10-14T19:30:10.032Z,93.43
2022-10-14T19:32:37.718Z,93.36
2022-10-14T19:35:07.103Z,93.04
2022-10-14T19:37:34.807Z,93.04
2022-10-14T19:40:02.508Z,92.42
2022-10-14T19:42:30.142Z,92.87
2022-10-14T19:44:57.804Z,92.47
2022-10-14T19:47:25.712Z,92.51
2022-10-14T19:49:53.542Z,92.36
2022-10-14T19:52:22.640Z,92.05
2022-10-14T19:54:50.240Z,92.37
2022-10-14T19:57:17.829Z,92.29
2022-10-14T19:59:45.399Z,92.04
2022-10-14T20:02:13.026Z,91.94
2022-10-14T20:04:40.646Z,92.42
2022-10-14T20:07:08.341Z,92.17
2022-10-14T20:09:37.477Z,91.93
2022-10-14T20:12:05.315Z,91.90
2022-10-14T20:14:33.021Z,92.08
2022-10-14T20:17:01.876Z,91.91
2022-10-14T20:19:29.517Z,91.82
2022-10-14T20:21:57.555Z,91.76
2022-10-14T20:24:25.234Z,92.09
2022-10-14T20:26:54.160Z,91.57
2022-10-14T20:29:21.875Z,91.53
2022-10-14T20:31:49.483Z,91.51
2022-10-14T20:34:17.095Z,91.33
2022-10-14T20:36:44.776Z,91.15
2022-10-14T20:39:12.542Z,90.94
2022-10-14T20:41:40.158Z,90.63
2022-10-14T20:44:09.196Z,90.89
2022-10-14T20:46:36.813Z,90.52
2022-10-14T20:49:04.457Z,90.67
2022-10-14T20:51:32.118Z,90.44
2022-10-14T20:54:03.965Z,90.72
2022-10-14T20:56:33.646Z,90.20
2022-10-14T20:59:02.734Z,90.61
2022-10-14T21:01:31.966Z,90.68
2022-10-14T21:04:01.344Z,90.46
2022-10-14T21:06:29.123Z,90.88
2022-10-14T21:08:56.778Z,90.60
2022-10-14T21:11:26.182Z,90.48
2022-10-14T21:13:54.885Z,90.26
2022-10-14T21:16:24.849Z,90.60
2022-10-14T21:18:57.913Z,90.54
2022-10-14T21:21:27.489Z,90.52
2022-10-14T21:23:55.317Z,90.81
2022-10-14T21:26:23.628Z,90.60
2022-10-14T21:28:51.309Z,90.84
2022-10-14T21:31:19.931Z,90.65
2022-10-14T21:33:48.102Z,90.68
2022-10-14T21:36:17.346Z,91.15
2022-10-14T21:38:45.131Z,91.57
2022-10-14T21:41:13.170Z,91.60
2022-10-14T21:43:41.168Z,91.59
2022-10-14T21:46:10.099Z,91.57
2022-10-14T21:48:37.820Z,91.88
2022-10-14T21:51:06.925Z,91.84
2022-10-14T21:53:36.254Z,91.79
2022-10-14T21:56:04.106Z,92.02
2022-10-14T21:58:31.850Z,91.66
2022-10-14T22:01:04.773Z,91.85
2022-10-14T22:03:32.790Z,92.02
2022-10-14T22:06:01.177Z,91.78
2022-10-14T22:08:32.987Z,91.66
2022-10-14T22:11:02.110Z,91.68
2022-10-14T22:13:29.892Z,91.93
2022-10-14T22:15:57.887Z,91.76
2022-10-14T22:18:25.633Z,91.62
2022-10-14T22:21:01.128Z,91.91
2022-10-14T22:23:28.837Z,91.63
2022-10-14T22:26:01.820Z,91.46
2022-10-14T22:28:30.738Z,91.37
2022-10-14T22:31:05.080Z,91.34
2022-10-14T22:33:34.172Z,91.47
2022-10-14T22:36:09.362Z,91.60
2022-10-14T22:38:37.140Z,91.41
2022-10-14T22:41:07.059Z,91.16
2022-10-14T22:43:35.795Z,91.49
2022-10-14T22:46:04.937Z,91.21
2022-10-14T22:48:32.685Z,91.16
2022-10-14T22:51:04.183Z,91.33
2022-10-14T22:53:31.983Z,91.64
2022-10-14T22:55:59.933Z,91.63
2022-10-14T22:58:29.054Z,91.31
2022-10-14T23:00:56.844Z,91.56
2022-10-14T23:03:25.512Z,91.62
2022-10-14T23:05:53.103Z,91.36
2022-10-14T23:08:21.121Z,91.60
2022-10-14T23:10:48.770Z,91.63
2022-10-14T23:13:16.537Z,91.54
2022-10-14T23:15:55.658Z,91.60
2022-10-14T23:18:23.454Z,91.92
2022-10-14T23:20:51.270Z,91.38
2022-10-14T23:23:18.973Z,91.87
2022-10-14T23:25:46.684Z,91.80
2022-10-14T23:28:14.729Z,91.41
2022-10-14T23:30:42.534Z,91.68
2022-10-14T23:33:12.661Z,91.93
2022-10-14T23:35:40.294Z,91.72
2022-10-14T23:38:07.921Z,91.79
2022-10-14T23:40:35.677Z,91.64
2022-10-14T23:43:03.236Z,91.19
2022-10-14T23:45:30.919Z,91.38
2022-10-14T23:47:58.591Z,91.00
2022-10-14T23:50:27.625Z,91.25
2022-10-14T23:52:55.198Z,90.84
2022-10-14T23:55:22.852Z,90.34
2022-10-14T23:57:50.605Z,90.61
